Time;durP1;ratioP1;P1;durP2;ratioP2;P2;SDS_P1;SDS_P2;PMS_P1;PMS_P2;Temp;Humidity;BMP_temperature;BMP_pressure;BME280_temperature;BME280_humidity;BME280_pressure;Samples;Min_cycle;Max_cycle;Signal;HPM_P1;HPM_P2
2024/01/25 00:00:11;;;;;;;0.50;0.50;;;;;;;8.47;78.98;98009.66;29395;204;63008;-56
2024/01/25 00:00:43;;;;;;;0.60;0.60;;;;;;;8.45;79.29;98009.09;29395;211;63004;-58
2024/01/25 00:01:15;;;;;;;0.60;0.60;;;;;;;8.44;79.15;98007.47;29394;254;64014;-56
2024/01/25 00:01:46;;;;;;;0.60;0.60;;;;;;;8.45;79.32;98009.91;29395;206;63005;-59
2024/01/25 00:02:17;;;;;;;0.60;0.60;;;;;;;8.48;79.24;98008.59;29395;204;63009;-57
2024/01/25 00:02:48;;;;;;;0.55;0.55;;;;;;;8.45;79.40;98009.91;29395;250;63005;-58
2024/01/25 00:03:20;;;;;;;0.50;0.50;;;;;;;8.46;79.15;98006.13;29395;269;63009;-56
2024/01/25 00:03:51;;;;;;;0.60;0.60;;;;;;;8.48;79.09;98014.00;29395;197;63015;-56
2024/01/25 00:04:22;;;;;;;0.50;0.50;;;;;;;8.48;79.33;98014.00;29395;205;63009;-58
2024/01/25 00:04:54;;;;;;;0.52;0.52;;;;;;;8.46;79.19;98010.72;29395;223;63005;-57
2024/01/25 00:05:25;;;;;;;0.60;0.60;;;;;;;8.47;79.44;97996.13;29395;256;63009;-57
2024/01/25 00:05:57;;;;;;;0.60;0.60;;;;;;;8.48;79.36;98004.00;29394;237;64009;-57
2024/01/25 00:06:29;;;;;;;0.52;0.52;;;;;;;8.46;79.23;98000.72;29395;219;63023;-57
2024/01/25 00:07:00;;;;;;;0.52;0.52;;;;;;;8.46;79.33;97999.91;29395;218;63004;-57
2024/01/25 00:07:31;;;;;;;0.60;0.60;;;;;;;8.48;79.39;98003.19;29395;197;63009;-56
2024/01/25 00:08:03;;;;;;;0.60;0.60;;;;;;;8.49;79.22;98011.03;29395;204;63004;-58
2024/01/25 00:08:35;;;;;;;0.60;0.60;;;;;;;8.48;79.40;97998.59;29395;199;63009;-57
2024/01/25 00:09:08;;;;;;;0.50;0.50;;;;;;;8.51;79.63;98002.69;29395;251;63005;-58
2024/01/25 00:09:39;;;;;;;0.50;0.50;;;;;;;8.48;79.74;97998.59;29395;202;63009;-58
2024/01/25 00:10:10;;;;;;;0.50;0.50;;;;;;;8.47;79.86;97996.94;29394;206;64009;-56
2024/01/25 00:10:42;;;;;;;0.50;0.50;;;;;;;8.45;79.80;97993.69;29395;206;63009;-57
2024/01/25 00:11:13;;;;;;;0.60;0.60;;;;;;;8.44;79.96;97997.47;29395;218;63005;-56
2024/01/25 00:11:44;;;;;;;0.57;0.57;;;;;;;8.46;79.96;98000.72;29395;263;63009;-60
2024/01/25 00:12:15;;;;;;;1.65;1.60;;;;;;;8.51;79.60;97989.97;29395;229;63005;-56
2024/01/25 00:12:46;;;;;;;0.50;0.50;;;;;;;8.53;79.38;97990.53;29395;228;63009;-57
2024/01/25 00:13:18;;;;;;;0.60;0.60;;;;;;;8.52;79.47;97998.91;29395;222;63004;-57
2024/01/25 00:13:50;;;;;;;0.57;0.57;;;;;;;8.50;79.67;97995.63;29394;231;64013;-56
2024/01/25 00:14:24;;;;;;;0.50;0.50;;;;;;;8.46;80.04;97992.62;29395;275;63004;-63
2024/01/25 00:14:55;;;;;;;0.50;0.50;;;;;;;8.47;80.13;97996.94;29395;211;63009;-58
2024/01/25 00:15:27;;;;;;;0.60;0.60;;;;;;;8.47;80.12;97988.84;29395;205;63004;-57
2024/01/25 00:15:58;;;;;;;0.50;0.50;;;;;;;8.47;80.10;97991.53;29395;195;63008;-58
2024/01/25 00:16:29;;;;;;;0.50;0.50;;;;;;;8.48;80.22;97987.78;29395;213;63004;-57
2024/01/25 00:17:01;;;;;;;0.50;0.50;;;;;;;8.49;80.28;97989.41;29395;212;63009;-58
2024/01/25 00:17:32;;;;;;;0.50;0.50;;;;;;;8.51;79.93;97989.97;29395;274;63005;-57
2024/01/25 00:18:04;;;;;;;0.50;0.50;;;;;;;8.54;80.25;97992.19;29395;202;63012;-57
2024/01/25 00:18:35;;;;;;;0.62;0.62;;;;;;;8.55;80.28;97988.41;29395;265;63005;-59
2024/01/25 00:19:07;;;;;;;0.60;0.60;;;;;;;8.55;80.20;97999.22;29394;247;64013;-57
2024/01/25 00:19:40;;;;;;;0.50;0.50;;;;;;;8.57;80.07;97991.66;29395;238;63005;-57
2024/01/25 00:20:12;;;;;;;0.50;0.50;;;;;;;8.55;79.88;97988.41;29395;275;63009;-57
2024/01/25 00:20:43;;;;;;;0.50;0.50;;;;;;;8.52;80.21;97978.09;29395;234;63000;-57
2024/01/25 00:21:14;;;;;;;0.60;0.60;;;;;;;8.50;80.07;97985.62;29395;360;63009;-58
2024/01/25 00:21:46;;;;;;;0.60;0.60;;;;;;;8.47;80.59;97983.44;29395;207;63004;-58
2024/01/25 00:22:17;;;;;;;0.80;0.80;;;;;;;8.50;80.30;97980.22;29394;212;64013;-57
2024/01/25 00:22:49;;;;;;;0.60;0.60;;;;;;;8.53;80.63;97985.12;29395;212;63004;-60
2024/01/25 00:23:20;;;;;;;0.50;0.50;;;;;;;8.56;80.68;97983.81;29395;336;63008;-57
2024/01/25 00:23:51;;;;;;;0.60;0.60;;;;;;;8.57;80.34;97986.25;29395;199;63005;-57
2024/01/25 00:24:23;;;;;;;0.50;0.50;;;;;;;8.58;80.60;97981.66;29395;198;63009;-56
2024/01/25 00:24:54;;;;;;;0.50;0.50;;;;;;;8.56;80.59;97984.62;29395;258;63005;-57
2024/01/25 00:25:25;;;;;;;0.60;0.60;;;;;;;8.58;80.71;97978.97;29395;245;63009;-58
2024/01/25 00:25:58;;;;;;;0.60;0.60;;;;;;;8.57;80.85;97985.44;29395;199;63005;-56
2024/01/25 00:26:30;;;;;;;0.60;0.60;;;;;;;8.58;80.86;97968.97;29395;238;63014;-64
2024/01/25 00:27:04;;;;;;;0.50;0.50;;;;;;;8.57;80.80;97986.25;29395;317;63005;-59
2024/01/25 00:27:36;;;;;;;0.60;0.60;;;;;;;8.54;81.50;97984.06;29394;224;64013;-58
2024/01/25 00:28:07;;;;;;;2.17;2.10;;;;;;;8.50;81.29;97985.62;29395;343;63004;-56
2024/01/25 00:28:38;;;;;;;0.50;0.50;;;;;;;8.46;81.72;97976.38;29395;216;63009;-56
2024/01/25 00:29:15;;;;;;;0.60;0.60;;;;;;;8.50;81.48;97985.62;29395;221;63004;-58
2024/01/25 00:29:46;;;;;;;0.50;0.50;;;;;;;8.50;81.84;97972.09;29395;217;63027;-58
2024/01/25 00:30:18;;;;;;;0.50;0.50;;;;;;;8.53;81.68;97987.00;29394;206;64009;-58
2024/01/25 00:30:51;;;;;;;0.60;0.60;;;;;;;8.55;81.62;97988.41;29395;208;63008;-57
2024/01/25 00:31:22;;;;;;;3.17;3.08;;;;;;;8.53;81.52;97985.12;29395;199;63005;-57
2024/01/25 00:31:53;;;;;;;0.60;0.60;;;;;;;8.57;81.68;97985.44;29395;220;63009;-58
2024/01/25 00:32:24;;;;;;;0.50;0.50;;;;;;;8.58;81.83;97987.91;29395;237;63005;-61
2024/01/25 00:32:58;;;;;;;0.50;0.50;;;;;;;8.59;81.67;97989.53;29395;230;63005;-56
2024/01/25 00:33:30;;;;;;;1.08;1.08;;;;;;;8.59;81.76;97984.13;29395;212;63005;-62
2024/01/25 00:34:03;;;;;;;0.60;0.60;;;;;;;8.62;81.57;97983.63;29395;277;63005;-57
2024/01/25 00:34:35;;;;;;;0.50;0.50;;;;;;;8.65;81.61;97988.53;29395;206;63011;-59
2024/01/25 00:35:09;;;;;;;0.50;0.50;;;;;;;8.61;81.92;97981.97;29394;230;64013;-57
2024/01/25 00:35:42;;;;;;;0.60;0.60;;;;;;;8.62;81.94;97980.09;29395;215;63004;-58
2024/01/25 00:36:14;;;;;;;0.50;0.50;;;;;;;8.59;82.20;97986.81;29395;260;63009;-57
2024/01/25 00:36:46;;;;;;;0.50;0.50;;;;;;;8.59;82.11;97981.41;29395;221;63004;-56
2024/01/25 00:37:18;;;;;;;0.50;0.50;;;;;;;8.57;82.34;97983.56;29395;196;63009;-62
2024/01/25 00:37:52;;;;;;;1.75;0.65;;;;;;;8.59;82.43;97980.59;29395;255;63004;-60
2024/01/25 00:38:24;;;;;;;0.60;0.60;;;;;;;8.62;82.01;97989.03;29394;202;64013;-60
2024/01/25 00:38:56;;;;;;;0.55;0.55;;;;;;;8.63;82.24;97987.97;29395;199;63011;-58
2024/01/25 00:39:28;;;;;;;0.60;0.60;;;;;;;8.61;82.32;97990.09;29395;239;63009;-56
2024/01/25 00:40:01;;;;;;;0.50;0.50;;;;;;;8.58;82.21;97981.66;29395;206;63005;-56
2024/01/25 00:40:33;;;;;;;0.50;0.50;;;;;;;8.56;82.67;97987.34;29395;252;63009;-58
2024/01/25 00:41:10;;;;;;;0.60;0.60;;;;;;;8.55;82.87;97990.28;29395;208;63005;-60
2024/01/25 00:41:50;;;;;;;0.60;0.60;;;;;;;8.56;82.72;97990.03;29395;207;63009;-60
2024/01/25 00:42:24;;;;;;;0.50;0.50;;;;;;;8.55;83.06;97988.41;29395;233;63005;-57
2024/01/25 00:42:56;;;;;;;0.60;0.60;;;;;;;8.51;83.46;97975.63;29394;204;64013;-58
2024/01/25 00:43:29;;;;;;;0.50;0.50;;;;;;;8.52;83.11;97978.09;29395;196;63008;-64
2024/01/25 00:44:01;;;;;;;0.50;0.50;;;;;;;8.55;82.92;97983.00;29395;208;63009;-56
2024/01/25 00:44:33;;;;;;;0.50;0.50;;;;;;;8.52;83.11;97978.09;29395;236;63004;-56
2024/01/25 00:45:06;;;;;;;0.50;0.50;;;;;;;8.56;83.13;97990.03;29395;241;63009;-58
2024/01/25 00:45:41;;;;;;;0.50;0.50;;;;;;;8.56;83.18;97984.62;29395;221;63000;-56
2024/01/25 00:46:15;;;;;;;1.40;1.40;;;;;;;8.57;82.90;97986.25;29395;213;63008;-63
2024/01/25 00:46:47;;;;;;;1.10;1.10;;;;;;;8.60;83.23;97993.88;29395;212;63005;-59
2024/01/25 00:47:19;;;;;;;0.50;0.50;;;;;;;8.65;82.71;97976.88;29395;242;63009;-58
2024/01/25 00:47:51;;;;;;;0.60;0.60;;;;;;;8.68;82.50;97982.56;29394;232;64009;-59
2024/01/25 00:48:23;;;;;;;0.70;0.70;;;;;;;8.69;82.62;97981.50;29395;274;63017;-56
2024/01/25 00:48:55;;;;;;;0.52;0.52;;;;;;;8.69;82.70;97978.81;29395;206;63005;-58
2024/01/25 00:49:28;;;;;;;0.57;0.57;;;;;;;8.67;82.55;97985.53;29395;202;63009;-57
2024/01/25 00:50:00;;;;;;;0.60;0.60;;;;;;;8.65;82.70;97985.81;29395;252;63004;-57
2024/01/25 00:50:32;;;;;;;0.52;0.52;;;;;;;8.67;82.92;97986.34;29395;204;63009;-59
2024/01/25 00:51:07;;;;;;;0.50;0.50;;;;;;;8.70;82.67;97985.03;29395;233;63004;-58
2024/01/25 00:51:46;;;;;;;0.50;0.50;;;;;;;8.70;82.53;97985.84;29394;203;64013;-58
2024/01/25 00:52:18;;;;;;;0.60;0.60;;;;;;;8.72;82.64;97988.31;29395;222;63012;-58
2024/01/25 00:52:53;;;;;;;0.55;0.55;;;;;;;8.71;82.60;97987.47;29395;222;63008;-58
2024/01/25 00:53:28;;;;;;;0.50;0.50;;;;;;;8.66;82.69;97992.84;29395;208;63004;-57
2024/01/25 00:54:00;;;;;;;0.60;0.60;;;;;;;8.69;82.71;97984.22;29395;213;63009;-56
2024/01/25 00:54:33;;;;;;;0.55;0.55;;;;;;;8.72;82.93;97983.72;29395;222;63005;-63
2024/01/25 00:55:06;;;;;;;0.50;0.50;;;;;;;8.71;82.98;97989.37;29395;230;63009;-58
2024/01/25 00:55:41;;;;;;;1.37;0.70;;;;;;;8.72;82.90;97989.13;29395;220;63009;-58
2024/01/25 00:56:13;;;;;;;0.50;0.50;;;;;;;8.68;82.96;97988.00;29394;244;64013;-61
2024/01/25 00:56:45;;;;;;;0.60;0.60;;;;;;;8.64;83.50;97980.66;29395;221;63005;-56
2024/01/25 00:57:18;;;;;;;0.60;0.60;;;;;;;8.61;83.72;97990.09;29395;254;63009;-60
2024/01/25 00:57:51;;;;;;;0.60;0.60;;;;;;;8.67;83.42;97985.53;29395;202;63004;-57
2024/01/25 00:58:25;;;;;;;1.60;1.50;;;;;;;8.66;83.35;97976.59;29395;202;63009;-63
2024/01/25 00:58:57;;;;;;;0.60;0.60;;;;;;;8.69;83.59;97986.91;29395;228;63004;-59
2024/01/25 00:59:29;;;;;;;0.50;0.50;;;;;;;8.67;83.66;97986.34;29395;225;63010;-57
2024/01/25 01:00:02;;;;;;;0.55;0.55;;;;;;;8.64;83.48;97989.59;29395;209;63004;-68
2024/01/25 01:00:35;;;;;;;0.57;0.57;;;;;;;8.61;83.75;97986.56;29395;197;63009;-58
2024/01/25 01:01:07;;;;;;;0.52;0.52;;;;;;;8.62;83.77;97994.44;29395;316;63005;-58
2024/01/25 01:01:40;;;;;;;0.60;0.60;;;;;;;8.64;83.93;97997.72;29394;204;64014;-69
2024/01/25 01:02:13;;;;;;;0.60;0.60;;;;;;;8.65;83.94;97983.13;29395;268;63005;-58
2024/01/25 01:02:46;;;;;;;0.50;0.50;;;;;;;8.69;83.85;97984.22;29395;242;63009;-56
2024/01/25 01:03:19;;;;;;;0.57;0.57;;;;;;;8.66;83.57;97984.72;29395;220;63009;-58
2024/01/25 01:03:52;;;;;;;0.60;0.60;;;;;;;8.67;83.54;97991.75;29394;211;64005;-59
2024/01/25 01:04:26;;;;;;;1.85;1.75;;;;;;;8.65;83.71;97983.13;29395;206;63009;-58
2024/01/25 01:04:58;;;;;;;0.60;0.60;;;;;;;8.64;83.93;97988.78;29395;210;63027;-58
2024/01/25 01:05:30;;;;;;;0.50;0.50;;;;;;;8.62;84.14;97983.63;29395;277;63004;-56
2024/01/25 01:06:03;;;;;;;0.60;0.60;;;;;;;8.62;83.87;97986.31;29395;273;63024;-57
2024/01/25 01:06:35;;;;;;;0.60;0.60;;;;;;;8.62;83.99;97988.22;29395;202;63004;-56
2024/01/25 01:07:08;;;;;;;3.30;1.02;;;;;;;8.65;84.15;97983.13;29394;198;64013;-57
2024/01/25 01:07:40;;;;;;;0.60;0.60;;;;;;;8.62;84.05;97989.03;29395;205;63004;-57
2024/01/25 01:08:13;;;;;;;0.60;0.60;;;;;;;8.58;84.04;97987.91;29395;250;63009;-56
2024/01/25 01:08:45;;;;;;;0.60;0.60;;;;;;;8.57;84.38;97985.44;29395;210;63005;-62
2024/01/25 01:09:17;;;;;;;0.50;0.50;;;;;;;8.61;84.24;97992.81;29394;273;64014;-56
2024/01/25 01:09:52;;;;;;;0.50;0.50;;;;;;;8.61;84.22;97973.06;29395;248;63005;-57
2024/01/25 01:10:23;;;;;;;0.60;0.60;;;;;;;8.63;84.11;97985.25;29395;199;63018;-58
2024/01/25 01:10:54;;;;;;;0.60;0.60;;;;;;;8.65;84.20;97993.94;29395;203;63005;-62
2024/01/25 01:11:25;;;;;;;0.60;0.60;;;;;;;8.69;83.38;97994.22;29395;276;63009;-60
2024/01/25 01:11:57;;;;;;;0.60;0.60;;;;;;;8.73;83.52;97990.75;29395;196;63010;-58
2024/01/25 01:12:33;;;;;;;0.52;0.52;;;;;;;8.75;83.02;97995.91;29395;204;63009;-59
2024/01/25 01:13:04;;;;;;;0.90;0.90;;;;;;;8.79;83.13;97988.09;29395;222;63004;-58
2024/01/25 01:13:36;;;;;;;0.60;0.60;;;;;;;8.77;83.06;97993.78;29395;210;63009;-56
2024/01/25 01:14:07;;;;;;;0.52;0.52;;;;;;;8.77;83.12;97985.66;29395;196;63004;-58
2024/01/25 01:14:39;;;;;;;0.50;0.50;;;;;;;8.77;82.82;97990.25;29394;224;64013;-57
2024/01/25 01:15:10;;;;;;;0.60;0.60;;;;;;;8.77;83.17;97990.25;29395;226;63004;-56
2024/01/25 01:15:41;;;;;;;0.60;0.60;;;;;;;8.77;83.13;97987.53;29395;226;63009;-59
2024/01/25 01:16:12;;;;;;;0.60;0.60;;;;;;;8.78;82.92;97967.53;29395;200;63005;-63
2024/01/25 01:16:44;;;;;;;0.60;0.60;;;;;;;8.76;83.07;97977.78;29395;220;63018;-58
2024/01/25 01:17:16;;;;;;;0.50;0.50;;;;;;;8.79;82.84;97977.28;29395;231;63009;-56
2024/01/25 01:17:47;;;;;;;0.50;0.50;;;;;;;8.76;82.79;97972.38;29394;237;64013;-58
2024/01/25 01:18:18;;;;;;;0.82;0.82;;;;;;;8.74;83.27;97981.56;29395;203;63005;-62
2024/01/25 01:18:50;;;;;;;0.60;0.60;;;;;;;8.77;83.04;97980.25;29395;284;63009;-57
2024/01/25 01:19:21;;;;;;;0.60;0.60;;;;;;;8.71;83.18;97979.38;29395;205;63005;-57
2024/01/25 01:19:52;;;;;;;0.50;0.50;;;;;;;8.70;83.35;97979.63;29395;273;63009;-58
2024/01/25 01:20:23;;;;;;;0.50;0.50;;;;;;;8.70;83.62;97979.63;29395;232;63004;-60
2024/01/25 01:20:55;;;;;;;0.60;0.60;;;;;;;8.67;83.70;97978.25;29395;220;63009;-58
2024/01/25 01:21:26;;;;;;;0.60;0.60;;;;;;;8.65;83.78;97972.28;29395;214;63004;-58
2024/01/25 01:21:57;;;;;;;0.50;0.50;;;;;;;8.65;83.44;97991.22;29395;225;63009;-59
2024/01/25 01:22:28;;;;;;;2.40;2.30;;;;;;;8.67;83.66;97978.25;29395;203;63004;-62
2024/01/25 01:22:59;;;;;;;0.70;0.70;;;;;;;8.63;83.86;97985.25;29394;202;64013;-57
2024/01/25 01:23:31;;;;;;;0.50;0.50;;;;;;;8.60;84.04;97983.06;29394;238;64009;-58
2024/01/25 01:24:02;;;;;;;0.50;0.50;;;;;;;8.60;83.87;97980.34;29394;243;64014;-57
2024/01/25 01:24:34;;;;;;;0.50;0.50;;;;;;;8.60;84.02;97984.94;29395;221;63005;-59
2024/01/25 01:25:06;;;;;;;0.50;0.50;;;;;;;8.60;84.32;97983.06;29395;217;63009;-58
2024/01/25 01:25:37;;;;;;;0.60;0.60;;;;;;;8.57;84.22;97980.84;29395;262;63005;-58
2024/01/25 01:26:08;;;;;;;0.50;0.50;;;;;;;8.57;84.21;97980.84;29395;259;63009;-58
2024/01/25 01:26:41;;;;;;;0.50;0.50;;;;;;;8.56;84.23;97981.91;29395;206;63005;-58
2024/01/25 01:27:13;;;;;;;0.50;0.50;;;;;;;8.54;84.57;97973.25;29395;264;63027;-58
2024/01/25 01:27:44;;;;;;;0.60;0.60;;;;;;;8.55;84.42;97974.88;29395;252;63004;-58
2024/01/25 01:28:16;;;;;;;0.60;0.60;;;;;;;8.55;84.67;97976.75;29395;202;63009;-57
2024/01/25 01:28:48;;;;;;;0.60;0.60;;;;;;;8.55;84.53;97972.16;29395;236;63004;-58
2024/01/25 01:29:22;;;;;;;0.50;0.50;;;;;;;8.54;84.57;97977.84;29394;240;64013;-56
2024/01/25 01:29:53;;;;;;;0.52;0.52;;;;;;;8.52;84.49;97978.09;29395;267;63004;-58
2024/01/25 01:30:24;;;;;;;0.50;0.50;;;;;;;8.51;84.70;97979.16;29395;227;63008;-58
2024/01/25 01:30:56;;;;;;;0.60;0.60;;;;;;;8.54;84.45;97970.53;29395;202;63005;-59
2024/01/25 01:31:27;;;;;;;0.60;0.60;;;;;;;8.58;84.45;97977.06;29395;231;63009;-64
2024/01/25 01:32:02;;;;;;;0.60;0.60;;;;;;;8.61;84.60;97976.56;29395;231;63005;-59
2024/01/25 01:32:34;;;;;;;0.60;0.60;;;;;;;8.65;84.36;97977.69;29395;203;63009;-56
2024/01/25 01:33:05;;;;;;;0.82;0.82;;;;;;;8.64;84.35;97973.37;29395;224;63005;-57
2024/01/25 01:33:36;;;;;;;0.50;0.50;;;;;;;8.61;84.10;97968.47;29394;217;64013;-57
2024/01/25 01:34:08;;;;;;;0.50;0.50;;;;;;;8.59;84.47;97977.91;29394;202;64009;-58
2024/01/25 01:34:39;;;;;;;0.60;0.60;;;;;;;8.60;84.44;97985.75;29395;226;63005;-62
2024/01/25 01:35:12;;;;;;;0.60;0.60;;;;;;;8.62;84.21;97980.09;29395;203;63004;-62
2024/01/25 01:35:43;;;;;;;0.50;0.50;;;;;;;8.64;83.92;97976.06;29395;231;63009;-59
2024/01/25 01:36:15;;;;;;;0.50;0.50;;;;;;;8.62;83.66;97967.38;29395;219;63004;-58
2024/01/25 01:36:46;;;;;;;0.60;0.60;;;;;;;8.61;84.22;97976.56;29395;275;63009;-59
2024/01/25 01:37:17;;;;;;;0.50;0.50;;;;;;;8.59;84.01;97970.59;29395;210;63004;-58
2024/01/25 01:37:49;;;;;;;0.50;0.50;;;;;;;8.61;84.14;97971.16;29395;249;63018;-60
2024/01/25 01:38:20;;;;;;;0.50;0.50;;;;;;;8.63;83.96;97958.19;29395;250;63005;-56
2024/01/25 01:38:51;;;;;;;0.50;0.50;;;;;;;8.61;83.98;97968.47;29394;197;64014;-56
2024/01/25 01:39:22;;;;;;;0.60;0.60;;;;;;;8.62;84.10;97956.56;29395;202;63005;-57
2024/01/25 01:39:55;;;;;;;4.03;1.10;;;;;;;8.64;84.22;97959.84;29394;216;64020;-59
2024/01/25 01:40:27;;;;;;;0.70;0.70;;;;;;;8.68;83.64;97970.94;29395;264;63014;-60
2024/01/25 01:41:01;;;;;;;0.50;0.50;;;;;;;8.67;83.78;97970.12;29395;217;63009;-57
2024/01/25 01:41:36;;;;;;;0.50;0.50;;;;;;;8.63;83.94;97963.63;29395;233;63005;-58
2024/01/25 01:42:07;;;;;;;0.50;0.50;;;;;;;8.62;83.94;97972.78;29395;196;63009;-63
2024/01/25 01:42:39;;;;;;;0.50;0.50;;;;;;;8.59;83.99;97973.31;29395;236;63004;-58
2024/01/25 01:43:22;;;;;;;0.50;0.50;;;;;;;8.58;84.01;97965.44;29395;212;63009;-57
2024/01/25 01:43:54;;;;;;;0.82;0.82;;;;;;;8.64;83.70;97973.37;29394;269;64009;-63
2024/01/25 01:44:26;;;;;;;0.70;0.70;;;;;;;8.66;83.43;97973.91;29394;247;64013;-58
2024/01/25 01:44:57;;;;;;;0.60;0.60;;;;;;;8.62;83.58;97983.63;29395;220;63004;-58
2024/01/25 01:45:29;;;;;;;1.40;1.40;;;;;;;8.65;83.73;97966.87;29395;215;63008;-59
2024/01/25 01:46:09;;;;;;;0.50;0.50;;;;;;;8.68;83.28;97971.75;29395;221;63005;-60
2024/01/25 01:46:42;;;;;;;0.50;0.50;;;;;;;8.65;83.18;97972.28;29417;241;63009;-57
2024/01/25 01:47:15;;;;;;;0.50;0.50;;;;;;;8.63;83.64;97977.12;29395;230;63005;-61
2024/01/25 01:47:46;;;;;;;0.60;0.60;;;;;;;8.62;83.51;97967.38;29395;252;63009;-56
2024/01/25 01:48:18;;;;;;;3.03;1.67;;;;;;;8.60;83.70;97971.41;29394;203;64009;-56
2024/01/25 01:48:51;;;;;;;0.60;0.60;;;;;;;8.57;83.65;97974.63;29395;231;63009;-57
2024/01/25 01:49:22;;;;;;;0.55;0.55;;;;;;;8.61;83.76;97971.16;29395;220;63004;-59
2024/01/25 01:49:53;;;;;;;0.60;0.60;;;;;;;8.60;83.75;97969.53;29395;215;63009;-60
2024/01/25 01:50:25;;;;;;;0.60;0.60;;;;;;;8.62;83.68;97961.97;29395;251;63000;-59
2024/01/25 01:50:58;;;;;;;0.60;0.60;;;;;;;8.63;83.45;97968.22;29395;246;63009;-58
2024/01/25 01:51:31;;;;;;;0.50;0.50;;;;;;;8.63;83.45;97969.03;29395;206;63004;-57
2024/01/25 01:52:03;;;;;;;0.60;0.60;;;;;;;8.60;83.51;97968.72;29395;273;63008;-56
2024/01/25 01:52:36;;;;;;;0.60;0.60;;;;;;;8.59;83.63;97967.88;29395;214;63004;-56
2024/01/25 01:53:10;;;;;;;0.60;0.60;;;;;;;8.54;83.82;97967.84;29395;224;63008;-57
2024/01/25 01:53:42;;;;;;;0.50;0.50;;;;;;;8.49;83.95;97966.94;29394;237;64009;-58
2024/01/25 01:54:14;;;;;;;0.60;0.60;;;;;;;8.47;83.89;97975.31;29395;227;63021;-56
2024/01/25 01:54:46;;;;;;;0.60;0.60;;;;;;;8.48;84.37;97976.94;29395;197;63008;-55
2024/01/25 01:55:18;;;;;;;0.50;0.50;;;;;;;8.46;84.35;97968.28;29395;202;63009;-59
2024/01/25 01:55:50;;;;;;;0.60;0.60;;;;;;;8.44;84.32;97975.81;29395;217;63010;-59
2024/01/25 01:56:21;;;;;;;0.50;0.50;;;;;;;8.45;84.36;97982.88;29395;197;63009;-59
2024/01/25 01:56:53;;;;;;;0.50;0.50;;;;;;;8.45;84.31;97977.44;29395;301;63008;-58
2024/01/25 01:57:26;;;;;;;0.62;0.62;;;;;;;8.50;83.58;97974.81;29395;236;63009;-58
2024/01/25 01:57:59;;;;;;;2.25;2.15;;;;;;;8.57;82.79;97966.50;29395;209;63004;-60
2024/01/25 01:58:32;;;;;;;1.85;1.33;;;;;;;8.59;82.60;97967.88;29395;205;63009;-62
2024/01/25 01:59:07;;;;;;;0.50;0.50;;;;;;;8.59;82.63;97969.78;29394;220;64009;-63
2024/01/25 01:59:38;;;;;;;0.60;0.60;;;;;;;8.61;82.10;97970.34;29395;237;63008;-64
2024/01/25 02:00:11;;;;;;;0.60;0.60;;;;;;;8.65;82.00;97980.41;29395;215;63005;-54
2024/01/25 02:00:43;;;;;;;0.50;0.50;;;;;;;8.65;81.92;97975.00;29395;197;63009;-60
2024/01/25 02:01:15;;;;;;;0.65;0.65;;;;;;;8.64;81.60;97978.78;29395;217;63005;-61
2024/01/25 02:01:46;;;;;;;0.50;0.50;;;;;;;8.61;81.78;97973.87;29394;228;64013;-57
2024/01/25 02:02:18;;;;;;;0.85;0.85;;;;;;;8.57;82.26;97975.44;29395;207;63005;-57
2024/01/25 02:02:50;;;;;;;0.60;0.60;;;;;;;8.55;82.35;97971.34;29395;219;63009;-58
2024/01/25 02:03:22;;;;;;;0.60;0.60;;;;;;;8.59;81.79;97973.31;29395;277;63005;-57
2024/01/25 02:03:53;;;;;;;0.50;0.50;;;;;;;8.61;81.45;97973.87;29395;273;63009;-58
2024/01/25 02:04:25;;;;;;;0.50;0.50;;;;;;;8.61;81.79;97973.87;29395;197;63004;-60
2024/01/25 02:04:56;;;;;;;0.50;0.50;;;;;;;8.60;81.62;97974.94;29394;208;64013;-58
2024/01/25 02:05:27;;;;;;;0.50;0.50;;;;;;;8.58;82.00;97976.25;29395;276;63004;-64
2024/01/25 02:06:02;;;;;;;0.60;0.60;;;;;;;8.53;82.20;97963.50;29395;227;63009;-57
2024/01/25 02:06:34;;;;;;;0.88;0.82;;;;;;;8.51;82.22;97976.44;29395;212;63004;-57
2024/01/25 02:07:07;;;;;;;0.60;0.60;;;;;;;8.51;82.61;97976.44;29395;280;63008;-57
2024/01/25 02:07:40;;;;;;;0.50;0.50;;;;;;;8.52;82.52;97975.38;29395;223;63012;-57
2024/01/25 02:08:12;;;;;;;0.60;0.60;;;;;;;8.55;82.60;97971.34;29395;271;63009;-61
2024/01/25 02:08:44;;;;;;;0.60;0.60;;;;;;;8.55;82.13;97977.59;29395;233;63005;-57
2024/01/25 02:09:16;;;;;;;2.65;2.55;;;;;;;8.58;82.08;97973.56;29395;260;63009;-60
2024/01/25 02:09:47;;;;;;;0.50;0.50;;;;;;;8.58;81.77;97963.56;29395;228;63005;-59
2024/01/25 02:10:18;;;;;;;0.50;0.50;;;;;;;8.59;81.68;97961.66;29394;308;64013;-57
2024/01/25 02:10:49;;;;;;;0.60;0.60;;;;;;;8.61;81.84;97968.47;29395;222;63005;-61
2024/01/25 02:11:21;;;;;;;0.50;0.50;;;;;;;8.58;81.67;97971.66;29395;265;63009;-63
2024/01/25 02:12:02;;;;;;;0.60;0.60;;;;;;;8.55;82.14;97968.66;29394;214;64009;-58
2024/01/25 02:12:33;;;;;;;0.60;0.60;;;;;;;8.54;82.43;97961.59;29416;202;64013;-68
2024/01/25 02:13:04;;;;;;;0.50;0.50;;;;;;;8.55;82.32;97965.94;29395;216;63004;-56
2024/01/25 02:13:35;;;;;;;1.05;1.05;;;;;;;8.57;82.02;97964.63;29395;197;63009;-58
2024/01/25 02:14:10;;;;;;;0.60;0.60;;;;;;;8.55;82.02;97961.34;29395;215;63017;-63
2024/01/25 02:14:41;;;;;;;0.50;0.50;;;;;;;8.55;82.26;97972.16;29395;227;63027;-57
2024/01/25 02:15:13;;;;;;;0.57;0.57;;;;;;;8.51;82.65;97973.75;29395;234;63011;-58
2024/01/25 02:15:44;;;;;;;0.60;0.60;;;;;;;8.51;82.59;97968.34;29395;210;63009;-56
2024/01/25 02:16:17;;;;;;;0.50;0.50;;;;;;;8.53;82.54;97976.19;29395;235;63005;-58
2024/01/25 02:16:48;;;;;;;0.50;0.50;;;;;;;8.51;82.29;97971.03;29395;249;63013;-56
2024/01/25 02:17:20;;;;;;;0.65;0.65;;;;;;;8.53;82.57;97968.91;29395;240;63005;-60
2024/01/25 02:17:52;;;;;;;0.55;0.55;;;;;;;8.54;82.46;97975.13;29394;203;64013;-58
2024/01/25 02:18:23;;;;;;;0.60;0.60;;;;;;;8.55;82.22;97982.19;29395;251;63011;-60
2024/01/25 02:18:57;;;;;;;0.60;0.60;;;;;;;8.54;82.23;97967.00;29395;218;63019;-58
2024/01/25 02:19:28;;;;;;;0.50;0.50;;;;;;;8.51;82.81;97970.22;29395;202;63004;-59
2024/01/25 02:20:00;;;;;;;0.50;0.50;;;;;;;8.47;82.54;97964.50;29395;240;63009;-61
2024/01/25 02:20:32;;;;;;;1.25;1.25;;;;;;;8.48;82.44;97966.13;29395;221;63004;-57
2024/01/25 02:21:03;;;;;;;0.60;0.60;;;;;;;8.47;82.70;97977.19;29395;259;63016;-58
2024/01/25 02:21:35;;;;;;;0.60;0.60;;;;;;;8.48;82.77;97966.13;29395;251;63004;-59
2024/01/25 02:22:06;;;;;;;0.60;0.60;;;;;;;8.50;82.57;97964.00;29394;241;64013;-61
2024/01/25 02:22:38;;;;;;;0.60;0.60;;;;;;;8.51;82.53;97965.63;29395;215;63004;-57
2024/01/25 02:23:09;;;;;;;1.15;1.15;;;;;;;8.50;82.43;97953.19;29395;199;63009;-58
2024/01/25 02:23:41;;;;;;;0.60;0.60;;;;;;;8.51;82.55;97957.50;29395;226;63001;-56
2024/01/25 02:24:13;;;;;;;0.60;0.60;;;;;;;8.48;82.22;97949.91;29395;241;63021;-57
2024/01/25 02:24:44;;;;;;;0.90;0.90;;;;;;;8.50;82.37;97958.59;29395;216;63005;-59
2024/01/25 02:25:16;;;;;;;0.50;0.50;;;;;;;8.49;82.68;97953.44;29394;246;64013;-58
2024/01/25 02:25:47;;;;;;;1.02;1.02;;;;;;;8.51;82.37;97948.59;29395;212;63005;-57
2024/01/25 02:26:18;;;;;;;13.30;1.75;;;;;;;8.53;81.98;97946.44;29389;222;65013;-58
2024/01/25 02:26:49;;;;;;;0.50;0.50;;;;;;;8.50;82.04;97955.06;29395;208;63005;-56
2024/01/25 02:27:21;;;;;;;0.60;0.60;;;;;;;8.48;82.05;97960.72;29394;205;64013;-63
2024/01/25 02:27:52;;;;;;;1.12;1.12;;;;;;;8.51;81.99;97954.00;29395;198;63004;-60
2024/01/25 02:28:23;;;;;;;0.50;0.50;;;;;;;8.48;82.05;97960.72;29395;218;63009;-57
2024/01/25 02:28:54;;;;;;;0.60;0.60;;;;;;;8.48;82.28;97952.59;29395;222;63004;-56
2024/01/25 02:29:25;;;;;;;0.50;0.50;;;;;;;8.43;82.12;97947.12;29395;202;63008;-57
2024/01/25 02:29:56;;;;;;;0.80;0.80;;;;;;;8.46;82.56;97960.16;29395;208;63004;-65
2024/01/25 02:30:28;;;;;;;0.50;0.50;;;;;;;8.45;82.28;97955.81;29395;260;63009;-58
2024/01/25 02:31:01;;;;;;;0.60;0.60;;;;;;;8.48;82.26;97951.78;29394;228;64009;-60
2024/01/25 02:31:32;;;;;;;0.60;0.60;;;;;;;8.49;81.86;97942.59;29395;205;63009;-58
2024/01/25 02:32:05;;;;;;;1.35;1.30;;;;;;;8.49;81.83;97970.47;29395;212;63005;-58
2024/01/25 02:32:36;;;;;;;0.60;0.60;;;;;;;8.48;82.31;97955.31;29394;209;64013;-59
2024/01/25 02:33:07;;;;;;;0.60;0.60;;;;;;;8.49;81.78;97970.47;29394;291;64009;-57
2024/01/25 02:33:39;;;;;;;0.60;0.60;;;;;;;8.52;81.51;97961.03;29395;217;63018;-60
2024/01/25 02:34:10;;;;;;;0.70;0.70;;;;;;;8.49;81.85;97956.13;29395;238;63005;-58
2024/01/25 02:34:41;;;;;;;0.60;0.60;;;;;;;8.45;81.87;97955.81;29395;219;63009;-59
2024/01/25 02:35:12;;;;;;;0.50;0.50;;;;;;;8.44;81.89;97954.19;29395;252;63004;-56